KGXY/GXY METAR and TAF weather

Enter ICAO airport designator
Station Type Date Time Source
KGXY METAR 2019/05/25 15:56 UTC NOAA

KGXY 251556Z VRB04KT 10SM CLR 17/04 A3007 RMK AO2 SLP168 T01670044


Station Type Date Time Source
KGXY Decoded METAR 2019/05/25 15:56 UTC NOAA

Greeley, Greeley-Weld County Airport, CO, United States (KGXY) 40-26N 104-38W
May 25, 2019 - 11:56 AM EDT / 2019.05.25 1556 UTC
Wind: Variable at 5 MPH (4 KT):0
Visibility: 10 mile(s):0
Sky conditions: clear
Temperature: 62.1 F (16.7 C)
Dew Point: 39.9 F (4.4 C)
Relative Humidity: 43%
Pressure (altimeter): 30.07 in. Hg (1018 hPa)
ob: KGXY 251556Z VRB04KT 10SM CLR 17/04 A3007 RMK AO2 SLP168 T01670044
cycle: 16

Station Type Date Time Source
KGXY TAF UTC NOAA

Error!

Example: see airport list